Time;durP1;ratioP1;P1;durP2;ratioP2;P2;SDS_P1;SDS_P2;PMS_P1;PMS_P2;Temp;Humidity;BMP_temperature;BMP_pressure;BME280_temperature;BME280_humidity;BME280_pressure;Samples;Min_cycle;Max_cycle;Signal;HPM_P1;HPM_P2
2022/03/29 00:00:33;;;;;;;23.13;13.77;;;;;;;;;;4985487;28;20633;-63
2022/03/29 00:02:59;;;;;;;23.50;13.90;;;;;;;;;;4980724;28;20233;-62
2022/03/29 00:05:25;;;;;;;23.37;13.27;;;;;;;;;;4978213;28;20201;-63
2022/03/29 00:07:51;;;;;;;20.50;14.37;;;;;;;;;;4980433;28;20268;-61
2022/03/29 00:10:17;;;;;;;22.03;13.87;;;;;;;;;;4974581;28;20209;-62
2022/03/29 00:12:43;;;;;;;24.87;14.03;;;;;;;;;;4973132;28;21609;-62
2022/03/29 00:15:09;;;;;;;24.57;13.47;;;;;;;;;;4976494;28;20189;-61
2022/03/29 00:17:35;;;;;;;22.00;13.87;;;;;;;;;;4984378;28;20658;-63
2022/03/29 00:20:01;;;;;;;21.60;13.80;;;;;;;;;;4977208;28;20255;-63
2022/03/29 00:22:27;;;;;;;25.67;14.60;;;;;;;;;;4983391;28;20209;-63
2022/03/29 00:24:52;;;;;;;24.57;14.20;;;;;;;;;;4981888;28;20188;-63
2022/03/29 00:27:19;;;;;;;22.33;13.97;;;;;;;;;;4978459;28;20195;-63
2022/03/29 00:29:46;;;;;;;22.60;13.70;;;;;;;;;;4979027;28;20229;-63
2022/03/29 00:32:12;;;;;;;22.40;12.80;;;;;;;;;;4980247;28;20710;-62
2022/03/29 00:34:38;;;;;;;23.20;14.13;;;;;;;;;;4987359;28;20193;-63
2022/03/29 00:37:04;;;;;;;24.70;13.83;;;;;;;;;;4982876;28;20204;-62
2022/03/29 00:39:30;;;;;;;26.40;14.30;;;;;;;;;;4979686;28;20228;-63
2022/03/29 00:41:57;;;;;;;20.47;12.93;;;;;;;;;;4984159;28;20218;-62
2022/03/29 00:44:25;;;;;;;24.00;13.27;;;;;;;;;;4982200;28;20201;-62
2022/03/29 00:46:51;;;;;;;23.13;13.07;;;;;;;;;;4981789;28;20605;-62
2022/03/29 00:49:17;;;;;;;21.67;12.63;;;;;;;;;;4987379;28;20190;-63
2022/03/29 00:51:42;;;;;;;27.10;14.07;;;;;;;;;;4982781;28;20247;-63
2022/03/29 00:54:08;;;;;;;23.07;12.80;;;;;;;;;;4976707;28;20198;-62
2022/03/29 00:56:34;;;;;;;22.73;13.40;;;;;;;;;;4977563;28;20289;-62
2022/03/29 00:59:00;;;;;;;20.33;13.13;;;;;;;;;;4975904;28;20244;-63
2022/03/29 01:01:26;;;;;;;24.50;13.20;;;;;;;;;;4975550;28;20232;-63
2022/03/29 01:03:52;;;;;;;25.50;13.70;;;;;;;;;;4979637;28;21402;-62
2022/03/29 01:06:18;;;;;;;23.67;13.10;;;;;;;;;;4982872;28;20195;-63
2022/03/29 01:08:44;;;;;;;26.67;13.57;;;;;;;;;;4988688;28;20991;-62
2022/03/29 01:11:12;;;;;;;19.73;12.43;;;;;;;;;;4982227;28;20198;-62
2022/03/29 01:13:38;;;;;;;21.43;13.63;;;;;;;;;;4979917;28;20198;-63
2022/03/29 01:18:48;;;;;;;24.40;13.80;;;;;;;;;;4975367;28;20216;-62
2022/03/29 01:21:16;;;;;;;21.27;12.87;;;;;;;;;;4979661;28;20887;-63
2022/03/29 01:23:42;;;;;;;19.60;12.03;;;;;;;;;;4980104;28;20327;-62
2022/03/29 01:26:08;;;;;;;23.53;13.27;;;;;;;;;;4978657;28;20196;-63
2022/03/29 01:28:34;;;;;;;19.30;12.43;;;;;;;;;;4979941;28;20635;-62
2022/03/29 01:31:00;;;;;;;20.33;12.33;;;;;;;;;;4979038;28;20209;-63
2022/03/29 01:33:26;;;;;;;18.87;12.50;;;;;;;;;;4982777;28;20237;-62
2022/03/29 01:35:52;;;;;;;22.40;13.17;;;;;;;;;;4981843;28;20252;-61
2022/03/29 01:38:18;;;;;;;20.63;12.47;;;;;;;;;;4981297;28;20190;-62
2022/03/29 01:40:44;;;;;;;21.43;13.13;;;;;;;;;;4975732;28;20243;-62
2022/03/29 01:43:11;;;;;;;19.53;12.83;;;;;;;;;;4979016;28;20196;-62
2022/03/29 01:45:37;;;;;;;21.97;12.83;;;;;;;;;;4984059;28;20194;-63
2022/03/29 01:48:03;;;;;;;18.57;11.97;;;;;;;;;;4988287;28;20193;-63
2022/03/29 01:50:29;;;;;;;22.70;11.77;;;;;;;;;;4981157;28;20190;-62
2022/03/29 01:52:55;;;;;;;17.60;10.70;;;;;;;;;;4978113;28;20197;-62
2022/03/29 01:55:21;;;;;;;20.53;12.40;;;;;;;;;;4978225;28;20205;-62
2022/03/29 01:57:47;;;;;;;21.07;11.80;;;;;;;;;;4981413;28;20243;-62
2022/03/29 02:00:34;;;;;;;21.43;11.83;;;;;;;;;;4983016;28;20198;-63
2022/03/29 02:03:04;;;;;;;18.10;11.27;;;;;;;;;;4977251;28;20321;-63
2022/03/29 02:05:33;;;;;;;19.50;12.10;;;;;;;;;;4978149;28;26079;-63
2022/03/29 02:08:00;;;;;;;20.83;12.63;;;;;;;;;;4978343;28;20709;-63
2022/03/29 02:10:26;;;;;;;16.57;11.30;;;;;;;;;;4969852;28;20232;-62
2022/03/29 02:12:52;;;;;;;20.80;12.30;;;;;;;;;;4976413;28;20540;-62
2022/03/29 02:15:18;;;;;;;20.20;11.73;;;;;;;;;;4973217;28;20194;-63
2022/03/29 02:17:44;;;;;;;17.63;11.63;;;;;;;;;;4974605;28;20198;-63
2022/03/29 02:20:11;;;;;;;18.83;12.17;;;;;;;;;;4983190;28;21136;-63
2022/03/29 02:22:37;;;;;;;20.33;12.00;;;;;;;;;;4983357;28;20218;-63
2022/03/29 02:25:03;;;;;;;21.07;12.03;;;;;;;;;;4984332;28;20202;-63
2022/03/29 02:27:29;;;;;;;18.77;11.87;;;;;;;;;;4987265;28;20281;-62
2022/03/29 02:29:55;;;;;;;18.43;11.73;;;;;;;;;;4987502;28;20253;-62
2022/03/29 02:32:21;;;;;;;19.53;12.97;;;;;;;;;;4988947;28;20193;-63
2022/03/29 02:34:47;;;;;;;20.17;12.13;;;;;;;;;;4986165;28;20201;-63
2022/03/29 02:37:13;;;;;;;22.43;12.20;;;;;;;;;;4978769;28;20213;-62
2022/03/29 02:39:39;;;;;;;19.73;12.73;;;;;;;;;;4976546;28;21206;-62
2022/03/29 02:42:06;;;;;;;21.27;12.83;;;;;;;;;;4982333;28;20222;-62
2022/03/29 02:44:32;;;;;;;21.03;12.67;;;;;;;;;;4982947;28;20754;-63
2022/03/29 02:46:57;;;;;;;26.43;13.13;;;;;;;;;;4979625;28;20193;-62
2022/03/29 02:49:24;;;;;;;23.33;12.13;;;;;;;;;;4985063;28;20205;-61
2022/03/29 02:51:51;;;;;;;20.03;12.23;;;;;;;;;;4984976;28;20682;-63
2022/03/29 02:54:17;;;;;;;19.07;11.90;;;;;;;;;;4987249;28;20293;-63
2022/03/29 02:56:43;;;;;;;21.17;12.00;;;;;;;;;;5000350;28;20679;-62
2022/03/29 02:59:09;;;;;;;19.30;12.33;;;;;;;;;;4987694;28;20197;-63
2022/03/29 03:01:35;;;;;;;20.43;12.33;;;;;;;;;;4986345;28;20961;-63
2022/03/29 03:04:02;;;;;;;17.43;12.60;;;;;;;;;;4980989;28;20623;-62
2022/03/29 03:06:28;;;;;;;21.20;12.60;;;;;;;;;;4974557;28;20194;-63
2022/03/29 03:08:54;;;;;;;20.83;12.57;;;;;;;;;;4984230;28;20613;-62
2022/03/29 03:11:20;;;;;;;22.17;12.53;;;;;;;;;;4987283;28;21017;-63
2022/03/29 03:13:46;;;;;;;20.77;12.30;;;;;;;;;;4987655;28;20277;-62
2022/03/29 03:16:12;;;;;;;21.33;13.30;;;;;;;;;;4985158;28;20201;-62
2022/03/29 03:18:39;;;;;;;21.90;14.00;;;;;;;;;;4984065;28;20808;-63
2022/03/29 03:21:05;;;;;;;19.27;12.83;;;;;;;;;;4979066;28;20870;-62
2022/03/29 03:23:31;;;;;;;20.00;13.00;;;;;;;;;;4984611;28;20488;-63
2022/03/29 03:25:57;;;;;;;22.30;13.07;;;;;;;;;;4984024;28;20198;-62
2022/03/29 03:28:22;;;;;;;22.83;12.73;;;;;;;;;;4989453;28;20250;-62
2022/03/29 03:30:49;;;;;;;19.27;12.30;;;;;;;;;;4997167;28;20196;-62
2022/03/29 03:33:14;;;;;;;24.03;12.27;;;;;;;;;;4988316;28;20692;-62
2022/03/29 03:35:40;;;;;;;17.33;11.43;;;;;;;;;;4990976;28;20193;-63
2022/03/29 03:38:07;;;;;;;20.27;13.30;;;;;;;;;;4984752;28;20190;-62
2022/03/29 03:40:33;;;;;;;20.17;12.43;;;;;;;;;;4981188;28;20665;-62
2022/03/29 03:43:00;;;;;;;22.57;13.10;;;;;;;;;;4974495;28;20568;-61
2022/03/29 03:45:26;;;;;;;22.57;12.97;;;;;;;;;;4982898;28;20220;-62
2022/03/29 03:47:52;;;;;;;17.70;12.60;;;;;;;;;;4978423;28;20189;-62
2022/03/29 03:50:17;;;;;;;19.83;13.40;;;;;;;;;;4981683;28;20243;-63
2022/03/29 03:52:43;;;;;;;20.40;12.60;;;;;;;;;;4989186;28;20534;-62
2022/03/29 03:55:09;;;;;;;20.30;13.70;;;;;;;;;;4979871;28;20231;-62
2022/03/29 03:57:35;;;;;;;22.13;13.43;;;;;;;;;;4979663;28;20208;-63
2022/03/29 04:00:01;;;;;;;21.93;13.53;;;;;;;;;;4978070;28;20193;-63
2022/03/29 04:02:27;;;;;;;21.07;12.50;;;;;;;;;;4982210;28;20206;-63
2022/03/29 04:04:53;;;;;;;17.87;12.93;;;;;;;;;;4983660;28;20264;-62
2022/03/29 04:07:19;;;;;;;21.63;14.13;;;;;;;;;;4981909;28;20190;-63
2022/03/29 04:09:45;;;;;;;20.03;13.83;;;;;;;;;;4988632;28;20618;-62
2022/03/29 04:12:11;;;;;;;20.90;13.07;;;;;;;;;;4986542;28;20655;-62
2022/03/29 04:14:37;;;;;;;20.83;13.93;;;;;;;;;;4980819;28;20190;-61
2022/03/29 04:17:04;;;;;;;18.47;12.90;;;;;;;;;;4979853;28;20651;-63
2022/03/29 04:19:30;;;;;;;23.27;13.53;;;;;;;;;;4989817;28;20205;-63
2022/03/29 04:21:56;;;;;;;20.30;13.57;;;;;;;;;;4985076;28;20294;-63
2022/03/29 04:24:22;;;;;;;22.30;13.10;;;;;;;;;;4987445;28;20603;-63
2022/03/29 04:26:48;;;;;;;26.43;13.93;;;;;;;;;;4985568;28;20232;-63
2022/03/29 04:29:14;;;;;;;19.70;13.47;;;;;;;;;;4986871;28;20186;-63
2022/03/29 04:31:40;;;;;;;21.97;14.40;;;;;;;;;;4979862;28;20202;-63
2022/03/29 04:34:06;;;;;;;22.07;14.33;;;;;;;;;;4984595;28;20193;-63
2022/03/29 04:36:32;;;;;;;24.30;16.17;;;;;;;;;;4990262;28;20273;-63
2022/03/29 04:38:58;;;;;;;22.43;15.53;;;;;;;;;;4986393;28;20590;-62
2022/03/29 04:41:24;;;;;;;24.27;15.27;;;;;;;;;;4986202;28;20297;-63
2022/03/29 04:43:50;;;;;;;24.00;15.97;;;;;;;;;;4985889;28;20548;-63
2022/03/29 04:46:17;;;;;;;23.37;15.80;;;;;;;;;;4981933;28;20852;-61
2022/03/29 04:48:43;;;;;;;23.50;15.47;;;;;;;;;;4986787;28;20217;-63
2022/03/29 04:51:09;;;;;;;20.93;14.17;;;;;;;;;;4981462;28;20276;-62
2022/03/29 04:53:35;;;;;;;21.80;14.10;;;;;;;;;;4980630;28;20580;-63
2022/03/29 04:56:00;;;;;;;23.07;15.30;;;;;;;;;;4980342;28;20190;-61
2022/03/29 04:58:26;;;;;;;19.00;14.93;;;;;;;;;;4971967;28;20197;-63
2022/03/29 05:00:53;;;;;;;21.13;14.90;;;;;;;;;;4974819;28;20221;-62
2022/03/29 05:03:19;;;;;;;23.30;14.47;;;;;;;;;;4970376;28;24564;-63
2022/03/29 05:05:44;;;;;;;22.33;14.50;;;;;;;;;;4974795;28;20215;-59
2022/03/29 05:08:10;;;;;;;16.80;12.87;;;;;;;;;;4972668;28;20225;-59
2022/03/29 05:10:36;;;;;;;22.73;15.50;;;;;;;;;;4970385;28;20193;-61
2022/03/29 05:13:02;;;;;;;24.63;15.77;;;;;;;;;;4978811;28;20191;-62
2022/03/29 05:15:28;;;;;;;21.87;14.17;;;;;;;;;;4974804;28;20190;-62
2022/03/29 05:17:54;;;;;;;25.00;13.23;;;;;;;;;;4986709;28;20304;-62
2022/03/29 05:20:20;;;;;;;21.47;13.67;;;;;;;;;;4988869;28;20208;-62
2022/03/29 05:22:52;;;;;;;21.37;13.77;;;;;;;;;;4987860;28;20217;-62
2022/03/29 05:25:19;;;;;;;21.13;13.43;;;;;;;;;;4988774;28;20182;-62
2022/03/29 05:27:45;;;;;;;22.27;14.10;;;;;;;;;;4989479;28;20212;-62
2022/03/29 05:30:12;;;;;;;22.90;14.53;;;;;;;;;;4987478;28;20193;-62
2022/03/29 05:32:38;;;;;;;22.63;14.37;;;;;;;;;;4989364;28;20561;-62
2022/03/29 05:35:04;;;;;;;21.77;14.80;;;;;;;;;;4984166;28;20181;-62
2022/03/29 05:37:30;;;;;;;20.37;14.70;;;;;;;;;;4986213;28;20186;-63
2022/03/29 05:39:56;;;;;;;23.10;14.30;;;;;;;;;;4977749;28;20197;-62
2022/03/29 05:42:22;;;;;;;20.23;14.03;;;;;;;;;;4984210;28;20220;-62
2022/03/29 05:44:48;;;;;;;20.70;13.17;;;;;;;;;;4986040;28;20336;-63
2022/03/29 05:49:59;;;;;;;22.00;13.77;;;;;;;;;;4985626;28;20196;-62
2022/03/29 05:52:25;;;;;;;20.07;13.53;;;;;;;;;;4982747;28;20198;-62
2022/03/29 05:54:51;;;;;;;22.30;13.43;;;;;;;;;;4990375;28;20230;-62
2022/03/29 05:57:17;;;;;;;19.43;14.30;;;;;;;;;;4987582;28;20280;-62
2022/03/29 05:59:43;;;;;;;23.43;14.60;;;;;;;;;;4987291;28;20761;-62
2022/03/29 06:02:09;;;;;;;21.90;14.10;;;;;;;;;;4984977;28;20663;-62
2022/03/29 06:04:35;;;;;;;20.07;14.87;;;;;;;;;;4985632;28;20237;-62
2022/03/29 06:07:02;;;;;;;21.50;14.97;;;;;;;;;;4984109;28;20197;-62
2022/03/29 06:09:28;;;;;;;23.67;15.07;;;;;;;;;;4983285;28;20205;-62
2022/03/29 06:11:54;;;;;;;18.10;13.60;;;;;;;;;;4986064;28;20189;-62
2022/03/29 06:14:20;;;;;;;24.73;14.80;;;;;;;;;;4983848;28;20197;-62
2022/03/29 06:16:46;;;;;;;17.67;13.97;;;;;;;;;;4984333;28;20655;-62
2022/03/29 06:19:12;;;;;;;21.13;14.83;;;;;;;;;;4980031;28;20204;-62
2022/03/29 06:21:38;;;;;;;20.53;14.27;;;;;;;;;;4983589;28;20221;-62
2022/03/29 06:24:07;;;;;;;25.77;15.13;;;;;;;;;;4989058;28;20189;-62
2022/03/29 06:26:36;;;;;;;24.53;15.57;;;;;;;;;;4992590;28;20209;-63
2022/03/29 06:29:02;;;;;;;21.37;14.37;;;;;;;;;;4992936;28;20198;-61
2022/03/29 06:31:28;;;;;;;25.00;14.93;;;;;;;;;;4990513;28;20189;-62
2022/03/29 06:33:54;;;;;;;21.80;15.50;;;;;;;;;;4989512;28;20190;-62
2022/03/29 06:36:20;;;;;;;23.03;14.67;;;;;;;;;;4994617;28;20615;-63
2022/03/29 06:38:46;;;;;;;21.70;14.87;;;;;;;;;;4990980;28;20651;-62
2022/03/29 06:41:13;;;;;;;21.23;14.60;;;;;;;;;;4989632;28;20221;-62
2022/03/29 06:43:39;;;;;;;23.30;15.10;;;;;;;;;;4991983;28;20257;-62
2022/03/29 06:46:07;;;;;;;21.27;15.67;;;;;;;;;;4996024;28;20197;-62
2022/03/29 06:48:33;;;;;;;19.10;14.53;;;;;;;;;;4993529;28;20197;-61
2022/03/29 06:50:59;;;;;;;19.70;14.93;;;;;;;;;;4991640;28;20249;-62
2022/03/29 06:53:25;;;;;;;21.33;15.67;;;;;;;;;;4992019;28;20212;-62
2022/03/29 06:55:51;;;;;;;21.57;15.03;;;;;;;;;;4984239;28;20763;-63
2022/03/29 06:58:18;;;;;;;22.80;15.97;;;;;;;;;;4983354;28;20304;-62
2022/03/29 07:00:44;;;;;;;21.50;15.77;;;;;;;;;;4986025;28;20192;-62
2022/03/29 07:03:10;;;;;;;19.63;15.47;;;;;;;;;;4984994;28;20975;-63
2022/03/29 07:05:38;;;;;;;17.43;14.53;;;;;;;;;;4985190;28;20308;-62
2022/03/29 07:08:04;;;;;;;22.73;16.53;;;;;;;;;;4987036;28;20221;-63
2022/03/29 07:13:15;;;;;;;22.43;17.03;;;;;;;;;;4993247;28;20200;-63
2022/03/29 07:15:41;;;;;;;23.93;16.63;;;;;;;;;;4986044;28;20202;-62
2022/03/29 07:18:07;;;;;;;24.20;16.83;;;;;;;;;;4989017;28;20194;-63
2022/03/29 07:20:33;;;;;;;24.83;16.80;;;;;;;;;;4984794;28;20190;-62
2022/03/29 07:22:59;;;;;;;24.03;16.90;;;;;;;;;;4987196;28;20245;-62
2022/03/29 07:25:27;;;;;;;24.50;17.23;;;;;;;;;;4991736;28;20185;-62
2022/03/29 07:27:53;;;;;;;24.17;17.40;;;;;;;;;;4988927;28;20197;-63
2022/03/29 07:30:20;;;;;;;22.07;17.00;;;;;;;;;;4988800;28;20197;-63
2022/03/29 07:32:49;;;;;;;22.80;17.33;;;;;;;;;;4988425;28;20655;-62
2022/03/29 07:35:16;;;;;;;22.73;17.13;;;;;;;;;;4993257;28;20272;-62
2022/03/29 07:37:42;;;;;;;25.33;17.40;;;;;;;;;;4989332;28;20308;-62
2022/03/29 07:40:08;;;;;;;24.37;17.47;;;;;;;;;;4990912;28;20280;-63
2022/03/29 07:42:36;;;;;;;24.20;17.23;;;;;;;;;;4984635;28;20209;-63
2022/03/29 07:45:03;;;;;;;23.33;17.13;;;;;;;;;;4994537;28;20748;-62
2022/03/29 07:47:29;;;;;;;24.13;18.30;;;;;;;;;;4991117;28;20181;-62
2022/03/29 07:49:55;;;;;;;22.57;17.47;;;;;;;;;;4983032;28;20202;-63
2022/03/29 07:52:21;;;;;;;26.23;18.20;;;;;;;;;;4984679;28;20776;-63
2022/03/29 07:54:47;;;;;;;25.83;19.03;;;;;;;;;;4988415;28;20198;-63
2022/03/29 07:57:13;;;;;;;26.50;18.13;;;;;;;;;;4991172;28;20205;-62
2022/03/29 07:59:40;;;;;;;23.83;18.33;;;;;;;;;;4994384;28;20281;-62
2022/03/29 08:02:06;;;;;;;23.20;17.90;;;;;;;;;;4985987;28;20213;-63
2022/03/29 08:04:32;;;;;;;27.07;19.33;;;;;;;;;;4968690;28;20325;-62
2022/03/29 08:07:00;;;;;;;26.50;17.73;;;;;;;;;;4983537;28;20217;-62
2022/03/29 08:09:26;;;;;;;22.27;17.87;;;;;;;;;;4968784;28;20332;-63
2022/03/29 08:11:52;;;;;;;24.40;18.23;;;;;;;;;;4988567;28;20201;-63
2022/03/29 08:14:19;;;;;;;26.20;18.17;;;;;;;;;;4984537;28;20228;-63
2022/03/29 08:16:46;;;;;;;27.93;18.63;;;;;;;;;;4987401;28;20233;-62
2022/03/29 08:19:12;;;;;;;24.17;18.83;;;;;;;;;;4992024;28;20202;-62
2022/03/29 08:21:50;;;;;;;29.43;18.63;;;;;;;;;;4994954;28;20299;-62
2022/03/29 08:24:23;;;;;;;25.10;18.50;;;;;;;;;;4992916;28;20546;-63
2022/03/29 08:26:49;;;;;;;26.97;18.47;;;;;;;;;;4987385;28;20191;-63
2022/03/29 08:29:16;;;;;;;28.30;19.00;;;;;;;;;;4995644;28;20272;-63
2022/03/29 08:31:43;;;;;;;24.83;18.00;;;;;;;;;;4986790;28;20201;-62
2022/03/29 08:34:09;;;;;;;23.17;18.50;;;;;;;;;;4993072;28;20197;-63
2022/03/29 08:36:36;;;;;;;23.27;18.73;;;;;;;;;;4993877;28;20198;-62
2022/03/29 08:39:03;;;;;;;26.10;18.73;;;;;;;;;;4988613;28;20216;-63
2022/03/29 08:41:31;;;;;;;25.90;18.73;;;;;;;;;;4988870;28;20213;-62
2022/03/29 08:43:57;;;;;;;28.43;19.13;;;;;;;;;;4989757;28;20213;-63
2022/03/29 08:46:22;;;;;;;20.37;16.13;;;;;;;;;;4993593;28;20190;-63
2022/03/29 08:48:49;;;;;;;21.40;14.83;;;;;;;;;;4987528;28;21131;-63
2022/03/29 08:51:15;;;;;;;26.30;17.43;;;;;;;;;;4987720;28;20648;-63
2022/03/29 08:53:44;;;;;;;19.70;16.00;;;;;;;;;;4977478;28;20197;-62
2022/03/29 08:56:10;;;;;;;20.27;15.90;;;;;;;;;;4988207;28;20198;-63
2022/03/29 08:58:36;;;;;;;20.20;16.60;;;;;;;;;;4994657;28;20244;-62
2022/03/29 09:01:02;;;;;;;22.57;16.93;;;;;;;;;;4995401;28;20201;-63
2022/03/29 09:03:28;;;;;;;23.00;16.93;;;;;;;;;;4995710;28;20280;-63
2022/03/29 09:06:04;;;;;;;22.07;17.70;;;;;;;;;;4988671;28;20197;-63
2022/03/29 09:08:41;;;;;;;22.47;16.60;;;;;;;;;;4991238;28;20658;-62
2022/03/29 09:11:08;;;;;;;22.27;16.17;;;;;;;;;;4992804;28;20203;-63
2022/03/29 09:13:34;;;;;;;23.13;17.07;;;;;;;;;;4997350;28;20260;-63
2022/03/29 09:16:01;;;;;;;25.97;17.13;;;;;;;;;;4990884;28;20196;-63
2022/03/29 09:18:27;;;;;;;19.63;16.20;;;;;;;;;;4984952;28;20260;-63
2022/03/29 09:21:15;;;;;;;22.40;16.47;;;;;;;;;;4984585;28;20187;-63
2022/03/29 09:23:42;;;;;;;18.70;15.93;;;;;;;;;;4992605;28;20244;-63
2022/03/29 09:26:08;;;;;;;20.63;15.87;;;;;;;;;;4994140;28;20232;-62
2022/03/29 09:28:34;;;;;;;25.87;15.50;;;;;;;;;;4992385;28;20229;-62
2022/03/29 09:31:00;;;;;;;18.57;15.67;;;;;;;;;;4993493;28;20201;-63
2022/03/29 09:33:30;;;;;;;19.77;14.97;;;;;;;;;;4991437;28;20255;-62
2022/03/29 09:35:59;;;;;;;23.40;15.33;;;;;;;;;;4994442;28;20764;-62
2022/03/29 09:38:30;;;;;;;18.97;14.40;;;;;;;;;;4989945;28;20403;-62
2022/03/29 09:40:56;;;;;;;19.73;15.00;;;;;;;;;;4985929;28;20205;-63
2022/03/29 09:43:23;;;;;;;18.80;15.37;;;;;;;;;;4986951;28;20245;-63
2022/03/29 09:45:50;;;;;;;18.43;14.93;;;;;;;;;;4987610;28;20193;-63
2022/03/29 09:48:42;;;;;;;18.23;15.67;;;;;;;;;;4985755;28;20553;-63
2022/03/29 09:51:08;;;;;;;19.90;15.63;;;;;;;;;;4978958;28;20212;-62
2022/03/29 09:53:47;;;;;;;16.73;15.03;;;;;;;;;;4985398;28;20193;-62
2022/03/29 09:56:14;;;;;;;16.43;14.73;;;;;;;;;;4988765;28;20207;-63
2022/03/29 09:58:40;;;;;;;17.00;14.77;;;;;;;;;;4990020;28;20189;-62
2022/03/29 10:01:06;;;;;;;21.10;15.93;;;;;;;;;;4993708;28;20357;-62
2022/03/29 10:03:34;;;;;;;18.93;14.33;;;;;;;;;;4992253;28;20239;-62
2022/03/29 10:06:03;;;;;;;18.55;14.38;;;;;;;;;;4995642;28;20190;-66
2022/03/29 10:11:17;;;;;;;16.63;14.57;;;;;;;;;;4986015;28;20236;-66
2022/03/29 10:13:44;;;;;;;18.92;14.82;;;;;;;;;;4990133;28;20197;-67
2022/03/29 10:16:12;;;;;;;18.77;14.35;;;;;;;;;;4992472;28;20221;-67
2022/03/29 10:18:38;;;;;;;15.20;13.52;;;;;;;;;;4993849;28;20281;-67
2022/03/29 10:21:09;;;;;;;15.93;12.85;;;;;;;;;;4997357;28;20197;-67
2022/03/29 10:23:35;;;;;;;15.25;12.38;;;;;;;;;;4996506;28;20193;-68
2022/03/29 10:26:01;;;;;;;13.75;11.90;;;;;;;;;;4992289;28;20189;-63
2022/03/29 10:28:27;;;;;;;15.02;12.20;;;;;;;;;;4996334;28;20333;-62
2022/03/29 10:30:53;;;;;;;13.30;11.90;;;;;;;;;;4990855;28;20228;-60
2022/03/29 10:33:22;;;;;;;11.90;10.68;;;;;;;;;;4994509;28;20299;-59
2022/03/29 10:36:07;;;;;;;12.95;10.18;;;;;;;;;;4996545;28;20663;-59
2022/03/29 10:38:44;;;;;;;10.18;8.57;;;;;;;;;;4990741;28;20918;-64
2022/03/29 10:41:29;;;;;;;10.18;8.38;;;;;;;;;;4989048;28;20614;-64
2022/03/29 10:43:55;;;;;;;10.43;8.90;;;;;;;;;;4994014;28;20186;-65
2022/03/29 10:46:25;;;;;;;9.20;8.30;;;;;;;;;;4994773;28;21074;-63
2022/03/29 10:49:10;;;;;;;8.40;7.55;;;;;;;;;;4995429;28;20461;-64
2022/03/29 10:51:36;;;;;;;11.40;8.23;;;;;;;;;;4995014;28;20190;-63
2022/03/29 10:54:21;;;;;;;8.20;7.40;;;;;;;;;;4981356;28;20240;-63
2022/03/29 10:57:06;;;;;;;7.88;7.05;;;;;;;;;;4988278;28;20200;-63
2022/03/29 10:59:33;;;;;;;9.52;7.38;;;;;;;;;;4990032;28;20252;-64
2022/03/29 11:02:12;;;;;;;8.38;6.70;;;;;;;;;;4989879;28;20205;-64
2022/03/29 11:04:58;;;;;;;8.82;6.50;;;;;;;;;;4983361;28;20230;-63
2022/03/29 11:07:24;;;;;;;10.32;7.18;;;;;;;;;;4985924;28;20193;-63
2022/03/29 11:09:50;;;;;;;7.93;6.88;;;;;;;;;;4987752;28;20194;-63
2022/03/29 11:12:35;;;;;;;7.63;6.68;;;;;;;;;;4985222;28;20209;-64
2022/03/29 11:15:01;;;;;;;8.10;6.53;;;;;;;;;;4988349;28;20193;-64
2022/03/29 11:17:30;;;;;;;7.22;6.50;;;;;;;;;;4989852;28;20198;-63
2022/03/29 11:19:59;;;;;;;7.75;6.95;;;;;;;;;;4992487;28;20203;-63
2022/03/29 11:22:25;;;;;;;7.28;6.63;;;;;;;;;;4988865;28;20285;-63
2022/03/29 11:24:52;;;;;;;8.77;7.60;;;;;;;;;;4994762;28;20190;-63
2022/03/29 11:27:22;;;;;;;9.30;7.65;;;;;;;;;;4993820;28;20193;-63
2022/03/29 11:29:48;;;;;;;7.47;6.75;;;;;;;;;;4994026;28;20198;-64
2022/03/29 11:32:15;;;;;;;9.07;7.38;;;;;;;;;;4988688;28;20285;-64
2022/03/29 11:34:41;;;;;;;8.45;7.10;;;;;;;;;;4994369;28;20186;-63
2022/03/29 11:37:07;;;;;;;8.13;7.25;;;;;;;;;;4994427;28;20659;-63
2022/03/29 11:39:33;;;;;;;11.80;10.20;;;;;;;;;;4989098;28;20285;-63
2022/03/29 11:41:59;;;;;;;15.63;14.02;;;;;;;;;;4986442;28;20205;-63
2022/03/29 11:44:25;;;;;;;14.68;12.52;;;;;;;;;;4988054;28;20240;-63
2022/03/29 11:46:56;;;;;;;19.98;17.95;;;;;;;;;;4991399;28;20197;-63
2022/03/29 11:49:22;;;;;;;20.48;18.45;;;;;;;;;;4984726;28;20208;-64
2022/03/29 11:52:02;;;;;;;20.27;17.90;;;;;;;;;;4990770;28;20201;-64
2022/03/29 11:54:28;;;;;;;22.65;20.30;;;;;;;;;;4988274;28;20571;-63
2022/03/29 11:56:53;;;;;;;24.60;19.75;;;;;;;;;;4994087;28;20644;-64
2022/03/29 11:59:19;;;;;;;25.08;20.35;;;;;;;;;;4993342;28;20205;-63
2022/03/29 12:01:45;;;;;;;23.30;19.85;;;;;;;;;;4986920;28;20210;-63
2022/03/29 12:04:12;;;;;;;27.02;23.10;;;;;;;;;;4988362;28;21027;-63
2022/03/29 12:06:50;;;;;;;26.77;22.13;;;;;;;;;;4984230;28;20602;-62
2022/03/29 12:09:26;;;;;;;29.20;25.45;;;;;;;;;;4990371;28;20280;-62
2022/03/29 12:11:55;;;;;;;29.52;25.00;;;;;;;;;;4988318;28;20825;-62
2022/03/29 12:14:21;;;;;;;28.30;23.73;;;;;;;;;;4990452;28;20189;-63
2022/03/29 12:16:48;;;;;;;27.55;24.42;;;;;;;;;;4988017;28;20194;-62
2022/03/29 12:19:15;;;;;;;29.60;25.00;;;;;;;;;;4994319;28;20219;-63
2022/03/29 12:21:42;;;;;;;40.53;26.05;;;;;;;;;;4987094;28;20217;-63
2022/03/29 12:24:09;;;;;;;30.92;25.65;;;;;;;;;;4992085;28;20217;-62
2022/03/29 12:26:37;;;;;;;32.83;26.77;;;;;;;;;;4995563;28;20227;-61
2022/03/29 12:29:03;;;;;;;31.00;27.55;;;;;;;;;;4994807;28;20209;-62
2022/03/29 12:31:29;;;;;;;31.27;25.88;;;;;;;;;;4994494;28;20229;-62
2022/03/29 12:33:55;;;;;;;31.85;27.63;;;;;;;;;;4993431;28;20591;-62
2022/03/29 12:36:21;;;;;;;33.17;28.10;;;;;;;;;;4994450;28;20192;-62
2022/03/29 12:38:48;;;;;;;34.90;28.30;;;;;;;;;;4995445;28;20601;-63
2022/03/29 12:41:15;;;;;;;31.73;28.23;;;;;;;;;;4991067;28;20218;-62
2022/03/29 12:43:41;;;;;;;34.92;28.48;;;;;;;;;;4993845;28;20730;-61
2022/03/29 12:46:09;;;;;;;33.95;28.27;;;;;;;;;;4995508;28;20234;-63
2022/03/29 12:48:35;;;;;;;34.60;28.67;;;;;;;;;;4992968;28;20273;-65
2022/03/29 12:51:04;;;;;;;37.10;29.85;;;;;;;;;;4990152;28;20186;-62
2022/03/29 12:53:31;;;;;;;33.33;27.98;;;;;;;;;;4988916;28;20194;-62
2022/03/29 12:55:57;;;;;;;35.20;28.23;;;;;;;;;;4985853;28;20280;-60
2022/03/29 12:58:30;;;;;;;31.90;28.35;;;;;;;;;;4993789;28;20202;-61
2022/03/29 13:00:56;;;;;;;34.05;28.75;;;;;;;;;;4991218;28;20287;-59
2022/03/29 13:03:23;;;;;;;33.13;28.98;;;;;;;;;;4990985;28;20312;-60
2022/03/29 13:05:49;;;;;;;31.33;26.52;;;;;;;;;;4991676;28;20197;-62
2022/03/29 13:08:21;;;;;;;31.48;27.75;;;;;;;;;;4989211;28;20195;-61
2022/03/29 13:10:49;;;;;;;32.60;28.35;;;;;;;;;;4991307;28;20189;-61
2022/03/29 13:13:18;;;;;;;32.92;26.48;;;;;;;;;;4989285;28;20194;-61
2022/03/29 13:15:46;;;;;;;30.50;27.23;;;;;;;;;;4986137;28;20275;-62
2022/03/29 13:18:22;;;;;;;31.05;26.92;;;;;;;;;;4988765;28;20198;-61
2022/03/29 13:20:49;;;;;;;30.73;26.75;;;;;;;;;;4989323;28;20196;-62
2022/03/29 13:23:37;;;;;;;30.60;25.63;;;;;;;;;;4988963;28;20826;-61
2022/03/29 13:26:04;;;;;;;33.63;26.40;;;;;;;;;;4992864;28;20188;-62
2022/03/29 13:28:30;;;;;;;32.47;26.08;;;;;;;;;;4987694;28;20183;-61
2022/03/29 13:30:56;;;;;;;29.55;25.63;;;;;;;;;;4987098;28;20201;-61
2022/03/29 13:33:22;;;;;;;30.60;25.20;;;;;;;;;;4988889;28;20192;-62
2022/03/29 13:35:52;;;;;;;36.05;26.65;;;;;;;;;;4981786;28;20300;-61
2022/03/29 13:38:21;;;;;;;34.47;26.90;;;;;;;;;;4984741;28;21013;-62
2022/03/29 13:40:47;;;;;;;33.92;26.15;;;;;;;;;;4984382;28;20186;-61
2022/03/29 13:43:14;;;;;;;30.85;24.95;;;;;;;;;;4988516;28;20213;-61
2022/03/29 13:45:40;;;;;;;31.35;25.25;;;;;;;;;;4990090;28;20260;-61
2022/03/29 13:48:06;;;;;;;35.35;26.60;;;;;;;;;;4983327;28;20544;-60
2022/03/29 13:50:33;;;;;;;36.58;27.23;;;;;;;;;;4983261;28;22091;-61
2022/03/29 13:52:59;;;;;;;34.75;26.65;;;;;;;;;;4986199;28;20200;-61
2022/03/29 13:55:25;;;;;;;33.92;26.30;;;;;;;;;;4988637;28;20190;-61
2022/03/29 13:57:51;;;;;;;33.55;25.55;;;;;;;;;;4992674;28;20284;-61
2022/03/29 14:00:18;;;;;;;48.25;35.13;;;;;;;;;;4989768;28;20186;-65
2022/03/29 14:02:44;;;;;;;51.88;37.30;;;;;;;;;;4984070;28;20797;-64
2022/03/29 14:05:10;;;;;;;52.13;38.13;;;;;;;;;;4982592;28;20276;-65
2022/03/29 14:07:36;;;;;;;54.47;38.77;;;;;;;;;;4984565;28;20255;-64
2022/03/29 14:10:02;;;;;;;52.63;37.23;;;;;;;;;;4987902;28;20206;-64
2022/03/29 14:12:28;;;;;;;44.00;33.57;;;;;;;;;;4982697;28;20484;-64
2022/03/29 14:14:54;;;;;;;43.43;31.50;;;;;;;;;;4985328;28;20201;-66
2022/03/29 14:17:20;;;;;;;50.17;37.03;;;;;;;;;;4984020;28;20204;-65
2022/03/29 14:19:50;;;;;;;79.97;36.27;;;;;;;;;;4984238;28;20549;-63
2022/03/29 14:22:16;;;;;;;50.50;32.63;;;;;;;;;;4988403;28;20222;-66
2022/03/29 14:24:42;;;;;;;51.27;34.17;;;;;;;;;;4986797;28;20201;-64
2022/03/29 14:27:08;;;;;;;48.83;33.57;;;;;;;;;;4987642;28;20659;-65
2022/03/29 14:29:34;;;;;;;45.00;31.20;;;;;;;;;;4986984;28;20282;-75